createdAt,value
2018-07-26T00:00:15.607Z,65.55
2018-07-26T00:03:20.843Z,66.25
2018-07-26T00:06:25.691Z,66.56
2018-07-26T00:09:31.071Z,66.29
2018-07-26T00:12:36.850Z,66.92
2018-07-26T00:15:42.927Z,66.42
2018-07-26T00:18:49.523Z,67.22
2018-07-26T00:21:54.813Z,66.74
2018-07-26T00:24:59.734Z,67.31
2018-07-26T00:28:04.941Z,66.17
2018-07-26T00:31:11.077Z,66.90
2018-07-26T00:34:16.716Z,66.73
2018-07-26T00:37:21.593Z,66.93
2018-07-26T00:40:26.807Z,67.47
2018-07-26T00:43:34.143Z,67.50
2018-07-26T00:46:39.700Z,67.27
2018-07-26T00:49:46.529Z,67.00
2018-07-26T00:52:51.384Z,66.05
2018-07-26T00:55:56.759Z,66.46
2018-07-26T00:59:01.659Z,65.90
2018-07-26T01:02:06.528Z,66.21
2018-07-26T01:05:11.437Z,66.72
2018-07-26T01:08:17.918Z,67.18
2018-07-26T01:11:23.124Z,65.54
2018-07-26T01:14:27.988Z,66.68
2018-07-26T01:17:32.920Z,66.07
2018-07-26T01:20:38.099Z,66.57
2018-07-26T01:23:43.942Z,65.97
2018-07-26T01:26:49.722Z,65.41
2018-07-26T01:29:55.431Z,66.72
2018-07-26T01:33:01.144Z,66.33
2018-07-26T01:36:06.727Z,65.94
2018-07-26T01:39:12.242Z,66.16
2018-07-26T01:42:17.102Z,65.79
2018-07-26T01:45:22.024Z,65.47
2018-07-26T01:48:27.813Z,67.12
2018-07-26T01:51:33.414Z,67.28
2018-07-26T01:54:39.215Z,66.59
2018-07-26T01:57:45.629Z,67.03
2018-07-26T02:00:50.816Z,66.46
2018-07-26T02:03:55.690Z,67.38
2018-07-26T02:07:01.115Z,67.12
2018-07-26T02:10:06.994Z,67.35
2018-07-26T02:13:12.758Z,68.52
2018-07-26T02:16:17.963Z,68.54
2018-07-26T02:19:24.064Z,68.41
2018-07-26T02:22:30.521Z,67.97
2018-07-26T02:25:37.287Z,67.43
2018-07-26T02:28:42.764Z,68.74
2018-07-26T02:31:48.943Z,68.24
2018-07-26T02:34:54.672Z,68.79
2018-07-26T02:38:00.463Z,68.20
2018-07-26T02:41:06.382Z,68.11
2018-07-26T02:44:13.552Z,68.72
2018-07-26T02:47:19.077Z,68.29
2018-07-26T02:50:23.979Z,68.06
2018-07-26T02:53:28.897Z,69.32
2018-07-26T02:56:34.265Z,69.29
2018-07-26T02:59:39.156Z,68.41
2018-07-26T03:02:44.915Z,68.26
2018-07-26T03:05:50.240Z,68.82
2018-07-26T03:08:56.118Z,69.02
2018-07-26T03:12:01.614Z,68.80
2018-07-26T03:15:08.466Z,68.80
2018-07-26T03:18:14.071Z,69.38
2018-07-26T03:21:18.931Z,68.52
2018-07-26T03:24:24.700Z,68.62
2018-07-26T03:27:30.073Z,69.20
2018-07-26T03:30:35.883Z,68.60
2018-07-26T03:33:40.734Z,69.33
2018-07-26T03:36:47.611Z,68.26
2018-07-26T03:39:53.333Z,68.52
2018-07-26T03:42:59.589Z,69.20
2018-07-26T03:46:05.598Z,69.23
2018-07-26T03:49:11.602Z,69.16
2018-07-26T03:52:23.171Z,69.39
2018-07-26T03:55:42.618Z,68.95
2018-07-26T03:58:51.955Z,69.22
2018-07-26T04:01:57.194Z,68.48
2018-07-26T04:05:02.409Z,69.03
2018-07-26T04:08:07.297Z,68.59
2018-07-26T04:11:12.230Z,68.51
2018-07-26T04:14:17.479Z,68.78
2018-07-26T04:17:22.403Z,68.75
2018-07-26T04:20:27.844Z,69.00
2018-07-26T04:23:33.978Z,69.05
2018-07-26T04:26:39.487Z,69.13
2018-07-26T04:29:45.459Z,68.76
2018-07-26T04:32:51.155Z,67.81
2018-07-26T04:35:56.047Z,68.28
2018-07-26T04:39:01.061Z,67.42
2018-07-26T04:42:06.008Z,67.86
2018-07-26T04:45:12.912Z,68.16
2018-07-26T04:48:18.121Z,67.63
2018-07-26T04:51:23.928Z,67.57
2018-07-26T04:54:29.391Z,68.01
2018-07-26T04:57:35.442Z,68.28
2018-07-26T05:00:40.297Z,68.92
2018-07-26T05:03:47.203Z,69.29
2018-07-26T05:06:54.728Z,69.02
2018-07-26T05:09:59.596Z,67.98
2018-07-26T05:13:05.704Z,68.33
2018-07-26T05:16:10.957Z,67.98
2018-07-26T05:19:17.139Z,67.29
2018-07-26T05:22:22.942Z,66.76
2018-07-26T05:25:28.229Z,66.68
2018-07-26T05:28:35.032Z,67.59
2018-07-26T05:31:40.564Z,66.67
2018-07-26T05:34:45.408Z,66.71
2018-07-26T05:37:51.227Z,67.76
2018-07-26T05:40:56.837Z,66.96
2018-07-26T05:44:02.315Z,67.30
2018-07-26T05:47:07.603Z,67.23
2018-07-26T05:50:13.411Z,67.91
2018-07-26T05:53:18.341Z,67.67
2018-07-26T05:56:23.396Z,68.19
2018-07-26T05:59:28.779Z,67.70
2018-07-26T06:02:34.551Z,68.01
2018-07-26T06:05:39.448Z,67.63
2018-07-26T06:08:44.885Z,68.59
2018-07-26T06:11:50.013Z,68.41
2018-07-26T06:14:54.901Z,67.94
2018-07-26T06:18:00.271Z,67.85
2018-07-26T06:21:06.128Z,68.33
2018-07-26T06:24:11.015Z,68.64
2018-07-26T06:27:16.848Z,68.56
2018-07-26T06:30:21.816Z,68.76
2018-07-26T06:33:27.230Z,68.66
2018-07-26T06:36:34.244Z,68.71
2018-07-26T06:39:39.477Z,68.99
2018-07-26T06:42:44.345Z,68.68
2018-07-26T06:45:50.242Z,68.90
2018-07-26T06:48:56.107Z,68.00
2018-07-26T06:52:00.987Z,68.20
2018-07-26T06:55:06.726Z,68.93
2018-07-26T06:58:12.538Z,68.80
2018-07-26T07:01:17.826Z,68.46
2018-07-26T07:04:24.335Z,68.73
2018-07-26T07:07:31.014Z,68.93
2018-07-26T07:10:36.607Z,68.56
2018-07-26T07:13:41.495Z,69.59
2018-07-26T07:16:46.399Z,68.98
2018-07-26T07:19:51.539Z,68.42
2018-07-26T07:22:57.452Z,68.71
2018-07-26T07:26:03.027Z,68.19
2018-07-26T07:29:08.808Z,68.01
2018-07-26T07:32:14.068Z,68.53
2018-07-26T07:35:20.039Z,68.46
2018-07-26T07:38:25.138Z,68.16
2018-07-26T07:41:30.090Z,68.02
2018-07-26T07:44:35.976Z,68.48
2018-07-26T07:47:40.954Z,67.56
2018-07-26T07:50:46.507Z,68.41
2018-07-26T07:53:52.407Z,67.78
2018-07-26T07:56:57.298Z,67.14
2018-07-26T08:00:02.716Z,67.66
2018-07-26T08:03:08.527Z,67.21
2018-07-26T08:06:14.363Z,67.82
2018-07-26T08:09:19.757Z,66.97
2018-07-26T08:12:24.720Z,67.03
2018-07-26T08:15:31.149Z,67.54
2018-07-26T08:18:36.050Z,66.42
2018-07-26T08:21:41.631Z,66.36
2018-07-26T08:24:47.503Z,67.37
2018-07-26T08:27:53.243Z,67.26
2018-07-26T08:30:58.848Z,67.33
2018-07-26T08:34:04.093Z,66.13
2018-07-26T08:37:10.110Z,66.15
2018-07-26T08:40:15.530Z,66.32
2018-07-26T08:43:21.367Z,66.83
2018-07-26T08:46:27.011Z,65.86
2018-07-26T08:49:33.191Z,65.63
2018-07-26T08:52:38.802Z,66.62
2018-07-26T08:55:43.679Z,65.98
2018-07-26T08:58:49.491Z,65.72
2018-07-26T09:01:54.728Z,64.97
2018-07-26T09:04:59.852Z,65.76
2018-07-26T09:08:06.706Z,65.54
2018-07-26T09:11:12.164Z,64.55
2018-07-26T09:14:18.271Z,64.31
2018-07-26T09:17:24.272Z,65.12
2018-07-26T09:20:30.011Z,64.59
2018-07-26T09:23:34.924Z,64.60
2018-07-26T09:26:39.791Z,63.62
2018-07-26T09:29:45.223Z,63.92
2018-07-26T09:32:51.066Z,63.85
2018-07-26T09:35:56.118Z,63.03
2018-07-26T09:39:01.903Z,62.19
2018-07-26T09:42:07.299Z,62.32
2018-07-26T09:45:12.548Z,63.14
2018-07-26T09:48:17.448Z,61.83
2018-07-26T09:51:23.390Z,61.01
2018-07-26T09:54:28.597Z,60.90
2018-07-26T09:57:34.733Z,60.90
2018-07-26T10:00:45.810Z,60.41
2018-07-26T10:03:50.767Z,58.74
2018-07-26T10:06:56.302Z,57.78
2018-07-26T10:10:03.580Z,59.14
2018-07-26T10:13:09.469Z,58.52
2018-07-26T10:16:15.038Z,58.25
2018-07-26T10:19:19.933Z,58.96
2018-07-26T10:22:25.188Z,57.72
2018-07-26T10:25:31.943Z,56.93
2018-07-26T10:28:37.988Z,57.21
2018-07-26T10:31:44.832Z,56.92
2018-07-26T10:34:50.396Z,56.99
2018-07-26T10:37:55.255Z,56.87
2018-07-26T10:41:02.048Z,56.08
2018-07-26T10:44:07.868Z,56.20
2018-07-26T10:47:13.758Z,56.34
2018-07-26T10:50:18.700Z,56.32
2018-07-26T10:53:24.644Z,56.82
2018-07-26T10:56:30.151Z,56.88
2018-07-26T10:59:36.057Z,56.09
2018-07-26T11:02:41.909Z,55.16
2018-07-26T11:05:47.139Z,55.83
2018-07-26T11:08:52.913Z,54.19
2018-07-26T11:12:00.248Z,54.53
2018-07-26T11:15:12.818Z,54.53
2018-07-26T11:18:17.891Z,55.61
2018-07-26T11:21:23.067Z,54.48
2018-07-26T11:24:29.160Z,53.13
2018-07-26T11:27:36.049Z,53.41
2018-07-26T11:30:42.265Z,53.56
2018-07-26T11:33:47.881Z,53.69
2018-07-26T11:36:52.760Z,53.94
2018-07-26T11:39:57.931Z,53.64
2018-07-26T11:43:03.712Z,53.20
2018-07-26T11:46:10.568Z,53.53
2018-07-26T11:49:17.356Z,54.27
2018-07-26T11:52:24.369Z,54.00
2018-07-26T11:55:30.724Z,54.03
2018-07-26T11:58:36.393Z,52.78
2018-07-26T12:01:41.606Z,53.03
2018-07-26T12:04:47.915Z,53.37
2018-07-26T12:07:53.896Z,53.21
2018-07-26T12:10:59.083Z,51.84
2018-07-26T12:14:04.242Z,52.76
2018-07-26T12:17:09.462Z,52.82
2018-07-26T12:20:14.644Z,52.63
2018-07-26T12:23:19.798Z,51.72
2018-07-26T12:26:24.971Z,51.19
2018-07-26T12:29:31.019Z,50.78
2018-07-26T12:32:37.447Z,51.61
2018-07-26T12:35:44.276Z,50.75
2018-07-26T12:38:50.156Z,50.81
2018-07-26T12:41:56.339Z,50.10
2018-07-26T12:45:03.081Z,50.00
2018-07-26T12:48:09.248Z,50.37
2018-07-26T12:51:14.427Z,50.77
2018-07-26T12:54:20.315Z,50.03
2018-07-26T12:57:26.442Z,50.42
2018-07-26T13:00:32.306Z,49.88
2018-07-26T13:03:38.421Z,49.33
2018-07-26T13:06:44.506Z,48.95
2018-07-26T13:09:50.869Z,49.71
2018-07-26T13:12:56.957Z,49.72
2018-07-26T13:16:04.090Z,48.59
2018-07-26T13:19:10.078Z,48.44
2018-07-26T13:22:15.268Z,49.11
2018-07-26T13:25:20.973Z,48.59
2018-07-26T13:28:26.241Z,49.10
2018-07-26T13:31:32.242Z,48.58
2018-07-26T13:34:39.145Z,48.93
2018-07-26T13:37:46.048Z,48.30
2018-07-26T13:40:52.494Z,49.73
2018-07-26T13:43:58.012Z,49.55
2018-07-26T13:47:03.193Z,49.40
2018-07-26T13:50:08.347Z,49.97
2018-07-26T13:53:13.503Z,49.39
2018-07-26T13:56:19.001Z,49.93
2018-07-26T13:59:24.192Z,49.45
2018-07-26T14:02:30.261Z,48.54
2018-07-26T14:05:35.795Z,50.19
2018-07-26T14:08:40.976Z,50.22
2018-07-26T14:11:46.117Z,49.26
2018-07-26T14:14:51.339Z,48.94
2018-07-26T14:17:57.080Z,49.23
2018-07-26T14:21:02.268Z,49.44
2018-07-26T14:24:12.670Z,49.78
2018-07-26T14:27:17.899Z,48.84
2018-07-26T14:30:24.347Z,49.61
2018-07-26T14:33:29.743Z,49.80
2018-07-26T14:36:35.499Z,48.91
2018-07-26T14:39:41.298Z,49.83
2018-07-26T14:42:46.520Z,49.39
2018-07-26T14:45:51.727Z,48.08
2018-07-26T14:48:57.192Z,48.86
2018-07-26T14:52:03.012Z,48.90
2018-07-26T14:55:09.116Z,49.05
2018-07-26T14:58:14.280Z,47.70
2018-07-26T15:01:19.804Z,48.89
2018-07-26T15:04:25.797Z,48.39
2018-07-26T15:07:31.762Z,47.38
2018-07-26T15:10:38.140Z,48.25
2018-07-26T15:13:44.189Z,47.50
2018-07-26T15:16:50.127Z,48.13
2018-07-26T15:19:55.406Z,48.20
2018-07-26T15:23:00.603Z,47.98
2018-07-26T15:26:05.883Z,47.86
2018-07-26T15:29:12.976Z,47.42
2018-07-26T15:32:18.846Z,47.99
2018-07-26T15:35:24.878Z,47.20
2018-07-26T15:38:31.655Z,47.78
2018-07-26T15:41:41.779Z,47.29
2018-07-26T15:44:48.554Z,46.94
2018-07-26T15:47:54.599Z,47.80
2018-07-26T15:51:00.511Z,46.95
2018-07-26T15:54:06.580Z,46.40
2018-07-26T15:57:11.763Z,47.57
2018-07-26T16:00:17.863Z,47.67
2018-07-26T16:03:25.006Z,46.39
2018-07-26T16:06:32.047Z,46.36
2018-07-26T16:09:38.489Z,47.12
2018-07-26T16:12:44.604Z,46.32
2018-07-26T16:15:50.850Z,47.03
2018-07-26T16:18:57.060Z,46.98
2018-07-26T16:22:02.284Z,47.43
2018-07-26T16:25:08.805Z,47.32
2018-07-26T16:28:14.924Z,47.38
2018-07-26T16:31:20.905Z,46.92
2018-07-26T16:34:26.625Z,47.41
2018-07-26T16:37:32.064Z,47.17
2018-07-26T16:40:37.647Z,47.86
2018-07-26T16:43:44.223Z,47.57
2018-07-26T16:46:50.061Z,47.89
2018-07-26T16:49:56.119Z,47.23
2018-07-26T16:53:01.563Z,46.24
2018-07-26T16:56:06.764Z,46.69
2018-07-26T16:59:12.970Z,48.14
2018-07-26T17:02:18.459Z,46.81
2018-07-26T17:05:24.560Z,46.79
2018-07-26T17:08:31.792Z,47.08
2018-07-26T17:11:39.209Z,47.73
2018-07-26T17:14:45.052Z,47.97
2018-07-26T17:17:50.623Z,48.21
2018-07-26T17:20:57.209Z,47.38
2018-07-26T17:24:02.444Z,46.99
2018-07-26T17:27:09.446Z,47.22
2018-07-26T17:30:15.574Z,47.57
2018-07-26T17:33:20.760Z,47.73
2018-07-26T17:36:25.924Z,47.76
2018-07-26T17:39:31.477Z,48.01
2018-07-26T17:42:39.190Z,48.84
2018-07-26T17:45:45.985Z,48.58
2018-07-26T17:48:52.990Z,48.66
2018-07-26T17:51:59.012Z,48.31
2018-07-26T17:55:05.327Z,49.90
2018-07-26T17:58:12.606Z,49.66
2018-07-26T18:01:18.736Z,50.31
2018-07-26T18:04:25.523Z,49.82
2018-07-26T18:07:31.568Z,50.23
2018-07-26T18:10:38.476Z,50.05
2018-07-26T18:13:43.721Z,49.37
2018-07-26T18:16:51.063Z,50.12
2018-07-26T18:19:57.119Z,50.75
2018-07-26T18:23:03.335Z,49.69
2018-07-26T18:26:08.561Z,50.84
2018-07-26T18:29:15.693Z,50.91
2018-07-26T18:32:23.172Z,50.19
2018-07-26T18:35:30.021Z,50.53
2018-07-26T18:38:35.804Z,51.43
2018-07-26T18:41:42.279Z,51.69
2018-07-26T18:44:49.079Z,51.81
2018-07-26T18:47:55.475Z,50.89
2018-07-26T18:51:01.527Z,51.49
2018-07-26T18:54:07.657Z,51.23
2018-07-26T18:57:14.732Z,52.12
2018-07-26T19:00:20.467Z,51.78
2018-07-26T19:03:25.964Z,51.80
2018-07-26T19:06:33.262Z,51.70
2018-07-26T19:09:40.008Z,51.87
2018-07-26T19:12:45.960Z,52.55
2018-07-26T19:15:51.758Z,52.60
2018-07-26T19:18:58.171Z,53.02
2018-07-26T19:22:03.339Z,52.47
2018-07-26T19:25:09.181Z,53.25
2018-07-26T19:28:15.340Z,52.45
2018-07-26T19:31:20.847Z,53.57
2018-07-26T19:34:25.991Z,53.28
2018-07-26T19:37:31.492Z,52.96
2018-07-26T19:40:37.491Z,53.47
2018-07-26T19:43:44.625Z,53.53
2018-07-26T19:46:50.417Z,52.88
2018-07-26T19:49:55.635Z,54.01
2018-07-26T19:53:02.076Z,53.27
2018-07-26T19:56:09.232Z,53.30
2018-07-26T19:59:18.323Z,53.25
2018-07-26T20:02:24.547Z,54.21
2018-07-26T20:05:30.876Z,53.81
2018-07-26T20:08:36.952Z,54.00
2018-07-26T20:11:44.049Z,54.05
2018-07-26T20:14:49.195Z,53.47
2018-07-26T20:17:55.025Z,54.17
2018-07-26T20:21:00.404Z,53.64
2018-07-26T20:24:05.568Z,53.92
2018-07-26T20:27:10.680Z,54.64
2018-07-26T20:30:17.582Z,54.28
2018-07-26T20:33:23.778Z,54.17
2018-07-26T20:36:29.153Z,53.95
2018-07-26T20:39:35.367Z,53.24
2018-07-26T20:42:40.796Z,54.20
2018-07-26T20:45:46.795Z,54.58
2018-07-26T20:48:52.691Z,54.24
2018-07-26T20:51:58.788Z,54.05
2018-07-26T20:55:04.584Z,55.14
2018-07-26T20:58:10.006Z,53.99
2018-07-26T21:01:15.161Z,54.70
2018-07-26T21:04:20.579Z,55.05
2018-07-26T21:07:25.757Z,54.99
2018-07-26T21:10:32.171Z,54.62
2018-07-26T21:13:38.859Z,54.66
2018-07-26T21:16:44.573Z,54.30
2018-07-26T21:19:50.042Z,54.63
2018-07-26T21:22:56.154Z,55.56
2018-07-26T21:26:06.151Z,54.61
2018-07-26T21:29:13.188Z,54.46
2018-07-26T21:32:18.735Z,55.28
2018-07-26T21:35:23.956Z,54.75
2018-07-26T21:38:30.105Z,55.35
2018-07-26T21:41:36.028Z,55.27
2018-07-26T21:44:41.299Z,55.88
2018-07-26T21:47:47.966Z,55.91
2018-07-26T21:50:54.751Z,54.93
2018-07-26T21:54:00.738Z,55.94
2018-07-26T21:57:07.830Z,55.73
2018-07-26T22:00:14.168Z,56.28
2018-07-26T22:03:19.570Z,55.32
2018-07-26T22:06:25.463Z,56.21
2018-07-26T22:12:36.807Z,56.73
2018-07-26T22:15:42.896Z,56.06
2018-07-26T22:19:00.321Z,55.95
2018-07-26T22:22:26.076Z,55.93
2018-07-26T22:25:55.164Z,56.66
2018-07-26T22:29:18.115Z,57.46
2018-07-26T22:32:30.496Z,57.10
2018-07-26T22:35:37.047Z,56.61
2018-07-26T22:38:42.840Z,57.94
2018-07-26T22:41:48.339Z,57.67
2018-07-26T22:44:54.247Z,56.78
2018-07-26T22:48:00.355Z,57.09
2018-07-26T22:51:05.880Z,56.79
2018-07-26T22:54:11.027Z,56.86
2018-07-26T22:57:18.099Z,56.76
2018-07-26T23:00:24.116Z,57.35
2018-07-26T23:03:29.911Z,57.03
2018-07-26T23:06:35.098Z,57.09
2018-07-26T23:09:40.221Z,57.11
2018-07-26T23:12:45.415Z,57.14
2018-07-26T23:15:52.687Z,57.39
2018-07-26T23:18:59.064Z,58.52
2018-07-26T23:22:06.245Z,57.79
2018-07-26T23:25:12.091Z,57.88
2018-07-26T23:28:18.158Z,58.11
2018-07-26T23:31:24.567Z,57.98
2018-07-26T23:34:30.255Z,58.53
2018-07-26T23:37:36.554Z,58.94
2018-07-26T23:40:43.209Z,59.13
2018-07-26T23:43:50.439Z,59.35
2018-07-26T23:46:56.241Z,58.96
2018-07-26T23:50:03.552Z,59.56
2018-07-26T23:53:09.889Z,59.24
2018-07-26T23:56:16.541Z,60.04
2018-07-26T23:59:24.164Z,60.04
